Time,TemperatureF,DewpointF,PressureIn,WindDirection,WindDirectionDegrees,WindSpeedMPH,WindSpeedGustMPH,Humidity,HourlyPrecipIn,Conditions,Clouds,dailyrainin,SoftwareType,DateUTC
2013-07-27 00:00:00,78.3,56.4,29.45,West,270,1.0,3.0,47,0.00,CLR,CLR,0.00,WeatherDisplay:10.37,2013-07-27 07:00:00,
2013-07-27 00:05:00,77.5,55.1,29.44,WSW,253,3.0,4.0,46,0.00,CLR,CLR,0.00,WeatherDisplay:10.37,2013-07-27 07:05:00,
2013-07-27 00:10:00,77.2,54.8,29.45,WSW,241,2.0,4.0,46,0.00,CLR,CLR,0.00,WeatherDisplay:10.37,2013-07-27 07:10:00,
2013-07-27 00:15:00,77.4,55.6,29.45,WSW,249,3.0,5.0,47,0.00,CLR,CLR,0.00,WeatherDisplay:10.37,2013-07-27 07:15:00,
2013-07-27 00:20:00,77.5,55.7,29.45,West,270,3.0,5.0,47,0.00,CLR,CLR,0.00,WeatherDisplay:10.37,2013-07-27 07:20:00,
2013-07-27 00:25:00,77.7,55.3,29.44,West,270,1.0,4.0,46,0.00,CLR,CLR,0.00,WeatherDisplay:10.37,2013-07-27 07:25:00,
2013-07-27 00:30:00,77.4,55.6,29.44,West,270,2.0,4.0,47,0.00,CLR,CLR,0.00,WeatherDisplay:10.37,2013-07-27 07:30:00,
2013-07-27 00:35:00,77.5,55.1,29.44,West,270,1.0,4.0,46,0.00,CLR,CLR,0.00,WeatherDisplay:10.37,2013-07-27 07:35:00,
2013-07-27 00:40:00,77.5,55.7,29.44,West,270,1.0,4.0,47,0.00,CLR,CLR,0.00,WeatherDisplay:10.37,2013-07-27 07:40:00,
2013-07-27 00:45:00,77.7,55.3,29.44,West,270,1.0,4.0,46,0.00,CLR,CLR,0.00,WeatherDisplay:10.37,2013-07-27 07:45:00,
2013-07-27 00:50:00,77.7,55.3,29.44,West,259,3.0,4.0,46,0.00,CLR,CLR,0.00,WeatherDisplay:10.37,2013-07-27 07:50:00,
2013-07-27 00:55:00,77.2,54.8,29.44,WSW,237,3.0,5.0,46,0.00,CLR,CLR,0.00,WeatherDisplay:10.37,2013-07-27 07:55:00,
2013-07-27 01:00:00,77.2,54.8,29.44,WSW,252,3.0,5.0,46,0.00,CLR,CLR,0.00,WeatherDisplay:10.37,2013-07-27 08:00:00,
2013-07-27 01:05:00,77.2,54.8,29.44,West,270,2.0,5.0,46,0.00,CLR,CLR,0.00,WeatherDisplay:10.37,2013-07-27 08:05:00,
2013-07-27 01:10:00,77.2,54.8,29.44,West,270,3.0,5.0,46,0.00,CLR,CLR,0.00,WeatherDisplay:10.37,2013-07-27 08:10:00,
2013-07-27 01:15:00,77.4,55.0,29.44,West,274,1.0,5.0,46,0.00,CLR,CLR,0.00,WeatherDisplay:10.37,2013-07-27 08:15:00,
2013-07-27 01:20:00,77.4,54.4,29.44,WNW,296,3.0,6.0,45,0.00,CLR,CLR,0.00,WeatherDisplay:10.37,2013-07-27 08:20:00,
2013-07-27 01:25:00,77.2,54.2,29.44,WNW,286,2.0,6.0,45,0.00,CLR,CLR,0.00,WeatherDisplay:10.37,2013-07-27 08:25:00,
2013-07-27 01:30:00,77.5,55.1,29.43,West,270,2.0,4.0,46,0.00,CLR,CLR,0.00,WeatherDisplay:10.37,2013-07-27 08:30:00,
2013-07-27 01:35:00,77.9,54.2,29.43,West,270,3.0,5.0,44,0.00,CLR,CLR,0.00,WeatherDisplay:10.37,2013-07-27 08:35:00,
2013-07-27 01:40:00,77.7,54.7,29.43,West,276,3.0,8.0,45,0.00,CLR,CLR,0.00,WeatherDisplay:10.37,2013-07-27 08:40:00,
2013-07-27 01:45:00,78.3,54.6,29.43,WNW,294,1.0,8.0,44,0.00,CLR,CLR,0.00,WeatherDisplay:10.37,2013-07-27 08:45:00,
2013-07-27 01:50:00,77.9,53.6,29.43,West,276,5.0,9.0,43,0.00,CLR,CLR,0.00,WeatherDisplay:10.37,2013-07-27 08:50:00,
2013-07-27 01:55:00,77.9,52.3,29.43,SW,229,3.0,9.0,41,0.00,CLR,CLR,0.00,WeatherDisplay:10.37,2013-07-27 08:55:00,
2013-07-27 02:00:00,77.7,51.5,29.42,WSW,248,3.0,7.0,40,0.00,CLR,CLR,0.00,WeatherDisplay:10.37,2013-07-27 09:00:00,
2013-07-27 02:05:00,78.8,53.1,29.43,West,266,3.0,7.0,41,0.00,CLR,CLR,0.00,WeatherDisplay:10.37,2013-07-27 09:05:00,
2013-07-27 02:10:00,79.0,53.3,29.42,WSW,245,1.0,6.0,41,0.00,CLR,CLR,0.00,WeatherDisplay:10.37,2013-07-27 09:10:00,
2013-07-27 02:15:00,79.5,53.1,29.43,SW,236,1.0,4.0,40,0.00,CLR,CLR,0.00,WeatherDisplay:10.37,2013-07-27 09:15:00,
2013-07-27 02:20:00,78.8,51.7,29.43,WSW,258,3.0,5.0,39,0.00,CLR,CLR,0.00,WeatherDisplay:10.37,2013-07-27 09:20:00,
2013-07-27 02:25:00,78.6,53.6,29.42,WSW,240,3.0,5.0,42,0.00,CLR,CLR,0.00,WeatherDisplay:10.37,2013-07-27 09:25:00,
2013-07-27 02:30:00,78.8,53.8,29.42,WSW,250,3.0,8.0,42,0.00,CLR,CLR,0.00,WeatherDisplay:10.37,2013-07-27 09:30:00,
2013-07-27 02:35:00,78.4,52.8,29.42,West,270,2.0,8.0,41,0.00,CLR,CLR,0.00,WeatherDisplay:10.37,2013-07-27 09:35:00,
2013-07-27 02:40:00,78.1,52.5,29.42,West,269,1.0,5.0,41,0.00,CLR,CLR,0.00,WeatherDisplay:10.37,2013-07-27 09:40:00,
2013-07-27 02:45:00,77.2,52.3,29.41,West,261,1.0,5.0,42,0.00,CLR,CLR,0.00,WeatherDisplay:10.37,2013-07-27 09:45:00,
2013-07-27 02:50:00,77.0,52.1,29.41,West,262,2.0,5.0,42,0.00,CLR,CLR,0.00,WeatherDisplay:10.37,2013-07-27 09:50:00,
2013-07-27 02:55:00,76.8,52.0,29.41,West,270,2.0,4.0,42,0.00,CLR,CLR,0.00,WeatherDisplay:10.37,2013-07-27 09:55:00,
2013-07-27 03:00:00,76.5,52.3,29.41,West,276,3.0,4.0,43,0.00,CLR,CLR,0.00,WeatherDisplay:10.37,2013-07-27 10:00:00,
2013-07-27 03:05:00,76.6,53.1,29.41,WNW,295,3.0,8.0,44,0.00,CLR,CLR,0.00,WeatherDisplay:10.37,2013-07-27 10:05:00,
2013-07-27 03:10:00,76.6,54.3,29.40,WNW,286,2.0,8.0,46,0.00,CLR,CLR,0.00,WeatherDisplay:10.37,2013-07-27 10:10:00,
2013-07-27 03:15:00,77.9,54.2,29.40,West,271,1.0,4.0,44,0.00,CLR,CLR,0.00,WeatherDisplay:10.37,2013-07-27 10:15:00,
2013-07-27 03:20:00,77.5,53.9,29.40,West,279,2.0,4.0,44,0.00,CLR,CLR,0.00,WeatherDisplay:10.37,2013-07-27 10:20:00,
2013-07-27 03:25:00,77.4,54.4,29.40,West,277,1.0,4.0,45,0.00,CLR,CLR,0.00,WeatherDisplay:10.37,2013-07-27 10:25:00,
2013-07-27 03:30:00,76.8,54.5,29.40,West,270,0.0,3.0,46,0.00,CLR,CLR,0.00,WeatherDisplay:10.37,2013-07-27 10:30:00,
2013-07-27 03:35:00,76.6,53.7,29.40,West,270,1.0,3.0,45,0.00,CLR,CLR,0.00,WeatherDisplay:10.37,2013-07-27 10:35:00,
2013-07-27 03:40:00,76.6,53.1,29.40,West,270,2.0,4.0,44,0.00,CLR,CLR,0.00,WeatherDisplay:10.37,2013-07-27 10:40:00,
2013-07-27 03:45:00,76.6,54.3,29.39,West,270,1.0,4.0,46,0.00,CLR,CLR,0.00,WeatherDisplay:10.37,2013-07-27 10:45:00,
2013-07-27 03:50:00,76.6,54.3,29.39,West,270,0.0,2.0,46,0.00,CLR,CLR,0.00,WeatherDisplay:10.37,2013-07-27 10:50:00,
2013-07-27 03:55:00,76.6,54.3,29.39,West,270,3.0,6.0,46,0.00,CLR,CLR,0.00,WeatherDisplay:10.37,2013-07-27 10:55:00,
2013-07-27 04:00:00,75.9,53.6,29.39,West,269,1.0,6.0,46,0.00,CLR,CLR,0.00,WeatherDisplay:10.37,2013-07-27 11:00:00,
2013-07-27 04:05:00,75.9,54.8,29.39,West,265,1.0,3.0,48,0.00,CLR,CLR,0.00,WeatherDisplay:10.37,2013-07-27 11:05:00,
2013-07-27 04:10:00,76.3,54.0,29.39,WNW,294,1.0,3.0,46,0.00,CLR,CLR,0.00,WeatherDisplay:10.37,2013-07-27 11:10:00,
2013-07-27 04:15:00,76.6,54.3,29.39,WNW,295,1.0,3.0,46,0.00,CLR,CLR,0.00,WeatherDisplay:10.37,2013-07-27 11:15:00,
2013-07-27 04:20:00,76.6,54.3,29.39,West,270,3.0,8.0,46,0.00,CLR,CLR,0.00,WeatherDisplay:10.37,2013-07-27 11:20:00,
2013-07-27 04:25:00,76.6,54.9,29.39,West,270,1.0,8.0,47,0.00,CLR,CLR,0.00,WeatherDisplay:10.37,2013-07-27 11:25:00,
2013-07-27 04:30:00,77.9,55.5,29.39,West,270,2.0,4.0,46,0.00,CLR,CLR,0.00,WeatherDisplay:10.37,2013-07-27 11:30:00,
2013-07-27 04:35:00,78.6,53.6,29.39,West,270,3.0,5.0,42,0.00,CLR,CLR,0.00,WeatherDisplay:10.37,2013-07-27 11:35:00,
2013-07-27 04:40:00,79.0,53.9,29.38,West,270,1.0,5.0,42,0.00,CLR,CLR,0.00,WeatherDisplay:10.37,2013-07-27 11:40:00,
2013-07-27 04:45:00,79.2,54.7,29.37,West,272,0.0,2.0,43,0.00,CLR,CLR,0.00,WeatherDisplay:10.37,2013-07-27 11:45:00,
2013-07-27 04:50:00,79.5,53.8,29.38,WNW,287,2.0,4.0,41,0.00,CLR,CLR,0.00,WeatherDisplay:10.37,2013-07-27 11:50:00,
2013-07-27 04:55:00,79.5,54.4,29.38,WSW,249,1.0,4.0,42,0.00,CLR,CLR,0.00,WeatherDisplay:10.37,2013-07-27 11:55:00,
2013-07-27 05:00:00,79.5,54.4,29.37,WSW,240,0.0,3.0,42,0.00,CLR,CLR,0.00,WeatherDisplay:10.37,2013-07-27 12:00:00,
2013-07-27 05:05:00,79.5,54.4,29.38,West,267,1.0,3.0,42,0.00,CLR,CLR,0.00,WeatherDisplay:10.37,2013-07-27 12:05:00,
2013-07-27 05:10:00,80.2,54.4,29.37,WSW,256,2.0,4.0,41,0.00,CLR,CLR,0.00,WeatherDisplay:10.37,2013-07-27 12:10:00,
2013-07-27 05:15:00,79.5,53.8,29.37,West,263,1.0,4.0,41,0.00,CLR,CLR,0.00,WeatherDisplay:10.37,2013-07-27 12:15:00,
2013-07-27 05:20:00,79.5,52.4,29.38,West,270,3.0,8.0,39,0.00,CLR,CLR,0.00,WeatherDisplay:10.37,2013-07-27 12:20:00,
2013-07-27 05:25:00,79.3,52.9,29.37,West,270,1.0,8.0,40,0.00,CLR,CLR,0.00,WeatherDisplay:10.37,2013-07-27 12:25:00,
2013-07-27 05:30:00,79.7,53.2,29.37,West,270,1.0,3.0,40,0.00,CLR,CLR,0.00,WeatherDisplay:10.37,2013-07-27 12:30:00,
2013-07-27 05:35:00,79.3,52.9,29.37,West,270,2.0,4.0,40,0.00,CLR,CLR,0.00,WeatherDisplay:10.37,2013-07-27 12:35:00,
2013-07-27 05:40:00,79.2,53.4,29.37,West,270,1.0,4.0,41,0.00,CLR,CLR,0.00,WeatherDisplay:10.37,2013-07-27 12:40:00,
2013-07-27 05:45:00,79.3,52.9,29.37,West,270,1.0,3.0,40,0.00,CLR,CLR,0.00,WeatherDisplay:10.37,2013-07-27 12:45:00,
2013-07-27 05:50:00,79.3,52.2,29.37,West,270,1.0,3.0,39,0.00,CLR,CLR,0.00,WeatherDisplay:10.37,2013-07-27 12:50:00,
2013-07-27 05:55:00,79.5,51.7,29.36,West,270,1.0,3.0,38,0.00,CLR,CLR,0.00,WeatherDisplay:10.37,2013-07-27 12:55:00,
2013-07-27 06:00:00,80.1,52.2,29.37,West,270,1.0,4.0,38,0.00,CLR,CLR,0.00,WeatherDisplay:10.37,2013-07-27 13:00:00,
2013-07-27 06:05:00,79.2,51.4,29.36,West,270,1.0,4.0,38,0.00,CLR,CLR,0.00,WeatherDisplay:10.37,2013-07-27 13:05:00,
2013-07-27 06:10:00,78.1,51.1,29.37,West,272,1.0,4.0,39,0.00,CLR,CLR,0.00,WeatherDisplay:10.37,2013-07-27 13:10:00,
2013-07-27 06:15:00,77.0,50.8,29.36,WNW,283,1.0,3.0,40,0.00,CLR,CLR,0.00,WeatherDisplay:10.37,2013-07-27 13:15:00,
2013-07-27 06:20:00,76.5,51.7,29.36,West,280,0.0,3.0,42,0.00,CLR,CLR,0.00,WeatherDisplay:10.37,2013-07-27 13:20:00,
2013-07-27 06:25:00,75.7,51.0,29.36,West,270,1.0,2.0,42,0.00,CLR,CLR,0.00,WeatherDisplay:10.37,2013-07-27 13:25:00,
2013-07-27 06:30:00,75.2,51.2,29.36,West,276,0.0,2.0,43,0.00,CLR,CLR,0.00,WeatherDisplay:10.37,2013-07-27 13:30:00,
2013-07-27 06:35:00,74.7,51.3,29.36,North,10,1.0,2.0,44,0.00,CLR,CLR,0.00,WeatherDisplay:10.37,2013-07-27 13:35:00,
2013-07-27 06:40:00,74.7,51.3,29.35,NNW,347,1.0,3.0,44,0.00,CLR,CLR,0.00,WeatherDisplay:10.37,2013-07-27 13:40:00,
2013-07-27 06:45:00,74.8,51.5,29.35,West,270,1.0,3.0,44,0.00,CLR,CLR,0.00,WeatherDisplay:10.37,2013-07-27 13:45:00,
2013-07-27 06:50:00,74.5,50.5,29.36,West,270,1.0,2.0,43,0.00,CLR,CLR,0.00,WeatherDisplay:10.37,2013-07-27 13:50:00,
2013-07-27 06:55:00,74.5,49.9,29.36,West,270,1.0,3.0,42,0.00,CLR,CLR,0.00,WeatherDisplay:10.37,2013-07-27 13:55:00,
2013-07-27 07:00:00,74.1,50.2,29.35,West,270,0.0,3.0,43,0.00,CLR,CLR,0.00,WeatherDisplay:10.37,2013-07-27 14:00:00,
2013-07-27 07:05:00,73.6,51.5,29.35,West,270,1.0,3.0,46,0.00,CLR,CLR,0.00,WeatherDisplay:10.37,2013-07-27 14:05:00,
2013-07-27 07:10:00,73.2,51.8,29.35,West,270,1.0,3.0,47,0.00,CLR,CLR,0.00,WeatherDisplay:10.37,2013-07-27 14:10:00,
2013-07-27 07:15:00,72.9,51.4,29.35,West,261,1.0,3.0,47,0.00,CLR,CLR,0.00,WeatherDisplay:10.37,2013-07-27 14:15:00,
2013-07-27 07:20:00,72.5,52.2,29.35,WSW,238,1.0,3.0,49,0.00,CLR,CLR,0.00,WeatherDisplay:10.37,2013-07-27 14:20:00,
2013-07-27 07:25:00,72.1,52.5,29.35,WSW,242,1.0,2.0,50,0.00,CLR,CLR,0.00,WeatherDisplay:10.37,2013-07-27 14:25:00,
2013-07-27 07:30:00,71.8,52.1,29.35,West,270,1.0,3.0,50,0.00,CLR,CLR,0.00,WeatherDisplay:10.37,2013-07-27 14:30:00,
2013-07-27 07:35:00,71.2,52.2,29.35,West,270,1.0,3.0,51,0.00,CLR,CLR,0.00,WeatherDisplay:10.37,2013-07-27 14:35:00,
2013-07-27 07:40:00,70.7,52.7,29.35,West,274,1.0,3.0,53,0.00,CLR,CLR,0.00,WeatherDisplay:10.37,2013-07-27 14:40:00,
2013-07-27 07:45:00,70.0,53.1,29.35,WNW,294,1.0,3.0,55,0.00,CLR,CLR,0.00,WeatherDisplay:10.37,2013-07-27 14:45:00,
2013-07-27 07:50:00,69.4,53.5,29.35,WNW,293,0.0,2.0,57,0.00,CLR,CLR,0.00,WeatherDisplay:10.37,2013-07-27 14:50:00,
2013-07-27 07:55:00,69.1,53.7,29.35,WSW,243,0.0,2.0,58,0.00,CLR,CLR,0.00,WeatherDisplay:10.37,2013-07-27 14:55:00,
2013-07-27 08:00:00,68.5,53.2,29.35,WSW,252,0.0,1.0,58,0.00,CLR,CLR,0.00,WeatherDisplay:10.37,2013-07-27 15:00:00,
2013-07-27 08:05:00,68.0,53.6,29.35,West,270,0.0,2.0,60,0.00,CLR,CLR,0.00,WeatherDisplay:10.37,2013-07-27 15:05:00,
2013-07-27 08:10:00,67.6,53.7,29.36,West,270,0.0,2.0,61,0.00,CLR,CLR,0.00,WeatherDisplay:10.37,2013-07-27 15:10:00,
2013-07-27 08:15:00,67.3,53.8,29.36,West,270,1.0,2.0,62,0.00,CLR,CLR,0.00,WeatherDisplay:10.37,2013-07-27 15:15:00,
2013-07-27 08:20:00,67.1,53.2,29.36,West,270,0.0,2.0,61,0.00,CLR,CLR,0.00,WeatherDisplay:10.37,2013-07-27 15:20:00,
2013-07-27 08:25:00,66.7,53.7,29.36,West,275,0.0,1.0,63,0.00,CLR,CLR,0.00,WeatherDisplay:10.37,2013-07-27 15:25:00,
2013-07-27 08:30:00,66.4,53.4,29.36,WNW,289,0.0,1.0,63,0.00,CLR,CLR,0.00,WeatherDisplay:10.37,2013-07-27 15:30:00,
2013-07-27 08:35:00,65.8,52.9,29.36,West,259,0.0,1.0,63,0.00,CLR,CLR,0.00,WeatherDisplay:10.37,2013-07-27 15:35:00,
2013-07-27 08:40:00,65.3,52.8,29.36,SW,225,1.0,2.0,64,0.00,CLR,CLR,0.00,WeatherDisplay:10.37,2013-07-27 15:40:00,
2013-07-27 08:45:00,64.8,53.1,29.36,SW,225,1.0,4.0,66,0.00,CLR,CLR,0.00,WeatherDisplay:10.37,2013-07-27 15:45:00,
2013-07-27 08:50:00,64.6,53.0,29.36,SW,232,0.0,4.0,66,0.00,CLR,CLR,0.00,WeatherDisplay:10.37,2013-07-27 15:50:00,
2013-07-27 08:55:00,64.2,52.6,29.36,WSW,258,0.0,2.0,66,0.00,CLR,CLR,0.00,WeatherDisplay:10.37,2013-07-27 15:55:00,
2013-07-27 09:00:00,63.9,52.3,29.36,West,270,0.0,1.0,66,0.00,CLR,CLR,0.00,WeatherDisplay:10.37,2013-07-27 16:00:00,
2013-07-27 09:05:00,63.3,52.6,29.36,West,270,1.0,2.0,68,0.00,CLR,CLR,0.00,WeatherDisplay:10.37,2013-07-27 16:05:00,
2013-07-27 09:10:00,63.0,52.6,29.36,West,270,1.0,2.0,69,0.00,CLR,CLR,0.00,WeatherDisplay:10.37,2013-07-27 16:10:00,
2013-07-27 09:15:00,62.4,52.5,29.36,West,270,1.0,2.0,70,0.00,CLR,CLR,0.00,WeatherDisplay:10.37,2013-07-27 16:15:00,
2013-07-27 09:20:00,62.1,52.5,29.36,West,270,1.0,2.0,71,0.00,CLR,CLR,0.00,WeatherDisplay:10.37,2013-07-27 16:20:00,
2013-07-27 09:25:00,61.7,52.6,29.36,West,270,0.0,2.0,72,0.00,CLR,CLR,0.00,WeatherDisplay:10.37,2013-07-27 16:25:00,
2013-07-27 09:30:00,61.3,52.2,29.36,West,270,1.0,2.0,72,0.00,CLR,CLR,0.00,WeatherDisplay:10.37,2013-07-27 16:30:00,
2013-07-27 09:35:00,61.0,52.3,29.36,West,270,0.0,2.0,73,0.00,CLR,CLR,0.00,WeatherDisplay:10.37,2013-07-27 16:35:00,
2013-07-27 09:40:00,60.8,52.1,29.36,West,270,0.0,2.0,73,0.00,CLR,CLR,0.00,WeatherDisplay:10.37,2013-07-27 16:40:00,
2013-07-27 09:45:00,60.4,51.7,29.36,West,270,0.0,1.0,73,0.00,CLR,CLR,0.00,WeatherDisplay:10.37,2013-07-27 16:45:00,
2013-07-27 09:50:00,60.3,52.3,29.36,West,270,0.0,2.0,75,0.00,CLR,CLR,0.00,WeatherDisplay:10.37,2013-07-27 16:50:00,
2013-07-27 09:51:00,60.4,51.7,29.36,West,270,0.0,1.0,73,0.00,CLR,CLR,0.00,WeatherDisplay:10.37,2013-07-27 16:51:00,
2013-07-27 09:52:00,60.4,51.7,29.36,West,270,0.0,0.0,73,0.00,CLR,CLR,0.00,WeatherDisplay:10.37,2013-07-27 16:52:00,
2013-07-27 09:53:00,60.4,51.7,29.36,West,270,0.0,0.0,73,0.00,CLR,CLR,0.00,WeatherDisplay:10.37,2013-07-27 16:53:00,
2013-07-27 09:54:00,60.4,51.7,29.36,West,270,0.0,0.0,73,0.00,CLR,CLR,0.00,WeatherDisplay:10.37,2013-07-27 16:54:00,
2013-07-27 09:55:00,60.4,51.7,29.36,West,270,0.0,0.0,73,0.00,CLR,CLR,0.00,WeatherDisplay:10.37,2013-07-27 16:55:00,
2013-07-27 10:00:00,59.9,52.0,29.36,West,266,0.0,1.0,75,0.00,CLR,CLR,0.00,WeatherDisplay:10.37,2013-07-27 17:00:00,
2013-07-27 10:06:00,59.9,52.0,29.36,West,261,0.0,0.0,75,0.00,CLR,CLR,0.00,WeatherDisplay:10.37,2013-07-27 17:06:00,
2013-07-27 10:07:00,59.9,52.0,29.36,West,261,0.0,0.0,75,0.00,CLR,CLR,0.00,WeatherDisplay:10.37,2013-07-27 17:07:00,
2013-07-27 10:08:00,59.9,52.0,29.36,West,261,0.0,0.0,75,0.00,CLR,CLR,0.00,WeatherDisplay:10.37,2013-07-27 17:08:00,
2013-07-27 10:09:00,59.9,52.0,29.36,West,261,0.0,0.0,75,0.00,CLR,CLR,0.00,WeatherDisplay:10.37,2013-07-27 17:09:00,
2013-07-27 10:10:00,59.9,52.0,29.36,West,261,0.0,0.0,75,0.00,CLR,CLR,0.00,WeatherDisplay:10.37,2013-07-27 17:10:00,
2013-07-27 22:55:00,60.4,51.7,29.36,West,270,1.1,0.0,73,0.00,CLR,,0.00,WeatherDisplay:10.37,2013-07-28 05:55:00,
2013-07-27 23:09:00,59.9,52.0,29.36,SW,225,0.0,0.0,75,0.00,CLR,,0.00,WeatherDisplay:10.37,2013-07-28 06:09:00,
2013-07-27 23:14:00,59.2,51.6,29.36,SW,225,0.0,0.0,76,0.00,CLR,,0.00,WeatherDisplay:10.37,2013-07-28 06:14:00,
2013-07-27 23:19:00,58.6,51.1,29.36,SW,225,0.0,0.0,76,0.00,CLR,,0.00,WeatherDisplay:10.37,2013-07-28 06:19:00,
2013-07-27 23:20:00,58.6,51.1,29.36,SW,225,0.0,0.0,76,0.00,CLR,,0.00,WeatherDisplay:10.37,2013-07-28 06:20:00,
2013-07-27 23:25:00,58.3,50.7,29.36,SW,225,0.0,0.0,76,0.00,CLR,,0.00,WeatherDisplay:10.37,2013-07-28 06:25:00,
2013-07-27 23:30:00,57.9,50.8,29.36,SW,225,0.0,0.0,77,0.00,CLR,,0.00,WeatherDisplay:10.37,2013-07-28 06:30:00,
2013-07-27 23:35:00,57.7,50.5,29.36,SW,225,0.0,0.0,77,0.00,CLR,CLR,0.00,WeatherDisplay:10.37,2013-07-28 06:35:00,
2013-07-27 23:40:00,57.6,50.8,29.36,SW,225,0.0,0.0,78,0.00,CLR,,0.00,WeatherDisplay:10.37,2013-07-28 06:40:00,
2013-07-27 23:45:00,57.0,50.2,29.35,SW,225,0.0,0.0,78,0.00,CLR,CLR,0.00,WeatherDisplay:10.37,2013-07-28 06:45:00,
2013-07-27 23:50:00,56.8,50.1,29.35,SW,225,0.0,0.0,78,0.00,CLR,,0.00,WeatherDisplay:10.37,2013-07-28 06:50:00,
2013-07-27 23:55:00,56.7,50.2,29.35,SW,225,0.0,0.0,79,0.00,CLR,CLR,0.00,WeatherDisplay:10.37,2013-07-28 06:55:00,